sensor_id;sensor_type;location;lat;lon;timestamp;temperature;humidity
21167;DHT22;10741;52.272;9.580;2022-08-02T00:00:14;14.60;99.90
21167;DHT22;10741;52.272;9.580;2022-08-02T00:02:44;14.50;99.90
21167;DHT22;10741;52.272;9.580;2022-08-02T00:05:11;14.50;99.90
21167;DHT22;10741;52.272;9.580;2022-08-02T00:07:37;14.50;99.90
21167;DHT22;10741;52.272;9.580;2022-08-02T00:10:04;14.50;99.90
21167;DHT22;10741;52.272;9.580;2022-08-02T00:12:30;14.40;99.90
21167;DHT22;10741;52.272;9.580;2022-08-02T00:14:56;14.40;99.90
21167;DHT22;10741;52.272;9.580;2022-08-02T00:17:22;14.40;99.90
21167;DHT22;10741;52.272;9.580;2022-08-02T00:19:48;14.30;99.90
21167;DHT22;10741;52.272;9.580;2022-08-02T00:22:14;14.30;99.90
21167;DHT22;10741;52.272;9.580;2022-08-02T00:24:40;14.30;99.90
21167;DHT22;10741;52.272;9.580;2022-08-02T00:27:05;14.30;99.90
21167;DHT22;10741;52.272;9.580;2022-08-02T00:29:33;14.20;99.90
21167;DHT22;10741;52.272;9.580;2022-08-02T00:31:59;14.30;99.90
21167;DHT22;10741;52.272;9.580;2022-08-02T00:34:25;14.30;99.90
21167;DHT22;10741;52.272;9.580;2022-08-02T00:36:51;14.30;99.90
21167;DHT22;10741;52.272;9.580;2022-08-02T00:39:17;14.30;99.90
21167;DHT22;10741;52.272;9.580;2022-08-02T00:41:47;14.30;99.90
21167;DHT22;10741;52.272;9.580;2022-08-02T00:44:17;14.40;99.90
21167;DHT22;10741;52.272;9.580;2022-08-02T00:46:44;14.40;99.90
21167;DHT22;10741;52.272;9.580;2022-08-02T00:49:11;14.40;99.90
21167;DHT22;10741;52.272;9.580;2022-08-02T00:51:37;14.40;99.90
21167;DHT22;10741;52.272;9.580;2022-08-02T00:54:03;14.40;99.90
21167;DHT22;10741;52.272;9.580;2022-08-02T00:56:29;14.30;99.90
21167;DHT22;10741;52.272;9.580;2022-08-02T00:58:55;14.40;99.90
21167;DHT22;10741;52.272;9.580;2022-08-02T01:01:21;14.40;99.90
21167;DHT22;10741;52.272;9.580;2022-08-02T01:04:12;14.30;99.90
21167;DHT22;10741;52.272;9.580;2022-08-02T01:06:40;14.40;99.90
21167;DHT22;10741;52.272;9.580;2022-08-02T01:09:06;14.40;99.90
21167;DHT22;10741;52.272;9.580;2022-08-02T01:11:33;14.30;99.90
21167;DHT22;10741;52.272;9.580;2022-08-02T01:14:11;14.30;99.90
21167;DHT22;10741;52.272;9.580;2022-08-02T01:16:51;14.20;99.90
21167;DHT22;10741;52.272;9.580;2022-08-02T01:19:46;14.20;99.90
21167;DHT22;10741;52.272;9.580;2022-08-02T01:30:51;14.00;99.90
21167;DHT22;10741;52.272;9.580;2022-08-02T01:33:20;13.90;99.90
21167;DHT22;10741;52.272;9.580;2022-08-02T01:35:51;13.90;99.90
21167;DHT22;10741;52.272;9.580;2022-08-02T01:38:34;13.90;99.90
21167;DHT22;10741;52.272;9.580;2022-08-02T01:41:03;13.80;99.90
21167;DHT22;10741;52.272;9.580;2022-08-02T01:43:32;13.80;99.90
21167;DHT22;10741;52.272;9.580;2022-08-02T01:46:00;13.80;99.90
21167;DHT22;10741;52.272;9.580;2022-08-02T01:48:27;13.80;99.90
21167;DHT22;10741;52.272;9.580;2022-08-02T01:50:54;13.70;99.90
21167;DHT22;10741;52.272;9.580;2022-08-02T01:53:22;13.70;99.90
21167;DHT22;10741;52.272;9.580;2022-08-02T01:55:52;13.70;99.90
21167;DHT22;10741;52.272;9.580;2022-08-02T01:58:19;13.60;99.90
21167;DHT22;10741;52.272;9.580;2022-08-02T02:00:47;13.60;99.90
21167;DHT22;10741;52.272;9.580;2022-08-02T02:03:19;13.50;99.90
21167;DHT22;10741;52.272;9.580;2022-08-02T02:05:50;13.50;99.90
21167;DHT22;10741;52.272;9.580;2022-08-02T02:08:22;13.50;99.90
21167;DHT22;10741;52.272;9.580;2022-08-02T02:10:49;13.50;99.90
21167;DHT22;10741;52.272;9.580;2022-08-02T02:13:17;13.50;99.90
21167;DHT22;10741;52.272;9.580;2022-08-02T02:15:47;13.50;99.90
21167;DHT22;10741;52.272;9.580;2022-08-02T02:18:19;13.50;99.90
21167;DHT22;10741;52.272;9.580;2022-08-02T02:20:46;13.50;99.90
21167;DHT22;10741;52.272;9.580;2022-08-02T02:23:13;13.40;99.90
21167;DHT22;10741;52.272;9.580;2022-08-02T02:25:41;13.40;99.90
21167;DHT22;10741;52.272;9.580;2022-08-02T02:28:11;13.40;99.90
21167;DHT22;10741;52.272;9.580;2022-08-02T02:30:43;13.40;99.90
21167;DHT22;10741;52.272;9.580;2022-08-02T02:33:11;13.40;99.90
21167;DHT22;10741;52.272;9.580;2022-08-02T02:35:39;13.40;99.90
21167;DHT22;10741;52.272;9.580;2022-08-02T02:38:10;13.40;99.90
21167;DHT22;10741;52.272;9.580;2022-08-02T02:40:39;13.40;99.90
21167;DHT22;10741;52.272;9.580;2022-08-02T02:43:06;13.40;99.90
21167;DHT22;10741;52.272;9.580;2022-08-02T02:45:33;13.40;99.90
21167;DHT22;10741;52.272;9.580;2022-08-02T02:48:01;13.40;99.90
21167;DHT22;10741;52.272;9.580;2022-08-02T02:50:29;13.40;99.90
21167;DHT22;10741;52.272;9.580;2022-08-02T02:52:56;13.40;99.90
21167;DHT22;10741;52.272;9.580;2022-08-02T02:55:23;13.40;99.90
21167;DHT22;10741;52.272;9.580;2022-08-02T02:57:50;13.30;99.90
21167;DHT22;10741;52.272;9.580;2022-08-02T03:00:16;13.30;99.90
21167;DHT22;10741;52.272;9.580;2022-08-02T03:02:43;13.30;99.90
21167;DHT22;10741;52.272;9.580;2022-08-02T03:05:11;13.20;99.90
21167;DHT22;10741;52.272;9.580;2022-08-02T03:07:37;13.20;99.90
21167;DHT22;10741;52.272;9.580;2022-08-02T03:10:05;13.10;99.90
21167;DHT22;10741;52.272;9.580;2022-08-02T03:12:33;13.10;99.90
21167;DHT22;10741;52.272;9.580;2022-08-02T03:15:00;13.10;99.90
21167;DHT22;10741;52.272;9.580;2022-08-02T03:17:44;13.10;99.90
21167;DHT22;10741;52.272;9.580;2022-08-02T03:20:15;13.10;99.90
21167;DHT22;10741;52.272;9.580;2022-08-02T03:22:42;13.10;99.90
21167;DHT22;10741;52.272;9.580;2022-08-02T03:25:10;13.10;99.90
21167;DHT22;10741;52.272;9.580;2022-08-02T03:27:36;13.10;99.90
21167;DHT22;10741;52.272;9.580;2022-08-02T03:30:04;13.00;99.90
21167;DHT22;10741;52.272;9.580;2022-08-02T03:32:32;13.00;99.90
21167;DHT22;10741;52.272;9.580;2022-08-02T03:34:58;13.00;99.90
21167;DHT22;10741;52.272;9.580;2022-08-02T03:37:25;13.00;99.90
21167;DHT22;10741;52.272;9.580;2022-08-02T03:39:52;13.00;99.90
21167;DHT22;10741;52.272;9.580;2022-08-02T03:42:19;12.90;99.90
21167;DHT22;10741;52.272;9.580;2022-08-02T03:44:47;12.90;99.90
21167;DHT22;10741;52.272;9.580;2022-08-02T03:47:13;12.90;99.90
21167;DHT22;10741;52.272;9.580;2022-08-02T03:49:39;13.00;99.90
21167;DHT22;10741;52.272;9.580;2022-08-02T03:52:06;13.00;99.90
21167;DHT22;10741;52.272;9.580;2022-08-02T03:54:32;13.00;99.90
21167;DHT22;10741;52.272;9.580;2022-08-02T03:56:58;13.00;99.90
21167;DHT22;10741;52.272;9.580;2022-08-02T03:59:23;13.00;99.90
21167;DHT22;10741;52.272;9.580;2022-08-02T04:01:49;13.10;99.90
21167;DHT22;10741;52.272;9.580;2022-08-02T04:04:15;13.10;99.90
21167;DHT22;10741;52.272;9.580;2022-08-02T04:06:41;13.10;99.90
21167;DHT22;10741;52.272;9.580;2022-08-02T04:09:06;13.10;99.90
21167;DHT22;10741;52.272;9.580;2022-08-02T04:11:32;13.10;99.90
21167;DHT22;10741;52.272;9.580;2022-08-02T04:14:04;13.20;99.90
21167;DHT22;10741;52.272;9.580;2022-08-02T04:16:41;13.20;99.90
21167;DHT22;10741;52.272;9.580;2022-08-02T04:19:10;13.20;99.90
21167;DHT22;10741;52.272;9.580;2022-08-02T04:21:39;13.20;99.90
21167;DHT22;10741;52.272;9.580;2022-08-02T04:24:07;13.20;99.90
21167;DHT22;10741;52.272;9.580;2022-08-02T04:26:34;13.20;99.90
21167;DHT22;10741;52.272;9.580;2022-08-02T04:29:01;13.20;99.90
21167;DHT22;10741;52.272;9.580;2022-08-02T04:31:28;13.20;99.90
21167;DHT22;10741;52.272;9.580;2022-08-02T04:33:54;13.20;99.90
21167;DHT22;10741;52.272;9.580;2022-08-02T04:36:20;13.20;99.90
21167;DHT22;10741;52.272;9.580;2022-08-02T04:38:48;13.20;99.90
21167;DHT22;10741;52.272;9.580;2022-08-02T04:41:14;13.20;99.90
21167;DHT22;10741;52.272;9.580;2022-08-02T04:43:40;13.20;99.90
21167;DHT22;10741;52.272;9.580;2022-08-02T04:46:06;13.30;99.90
21167;DHT22;10741;52.272;9.580;2022-08-02T04:48:32;13.30;99.90
21167;DHT22;10741;52.272;9.580;2022-08-02T04:50:58;13.30;99.90
21167;DHT22;10741;52.272;9.580;2022-08-02T04:53:24;13.30;99.90
21167;DHT22;10741;52.272;9.580;2022-08-02T04:55:50;13.40;99.90
21167;DHT22;10741;52.272;9.580;2022-08-02T04:58:16;13.30;99.90
21167;DHT22;10741;52.272;9.580;2022-08-02T05:00:42;13.30;99.90
21167;DHT22;10741;52.272;9.580;2022-08-02T05:03:08;13.40;99.90
21167;DHT22;10741;52.272;9.580;2022-08-02T05:05:34;13.40;99.90
21167;DHT22;10741;52.272;9.580;2022-08-02T05:08:00;13.40;99.90
21167;DHT22;10741;52.272;9.580;2022-08-02T05:10:26;13.30;99.90
21167;DHT22;10741;52.272;9.580;2022-08-02T05:12:52;13.30;99.90
21167;DHT22;10741;52.272;9.580;2022-08-02T05:15:18;13.30;99.90
21167;DHT22;10741;52.272;9.580;2022-08-02T05:17:45;13.40;99.90
21167;DHT22;10741;52.272;9.580;2022-08-02T05:20:11;13.40;99.90
21167;DHT22;10741;52.272;9.580;2022-08-02T05:22:40;13.60;99.90
21167;DHT22;10741;52.272;9.580;2022-08-02T05:25:07;13.80;99.90
21167;DHT22;10741;52.272;9.580;2022-08-02T05:27:33;13.90;99.90
21167;DHT22;10741;52.272;9.580;2022-08-02T05:29:59;14.00;99.90
21167;DHT22;10741;52.272;9.580;2022-08-02T05:32:25;14.10;99.90
21167;DHT22;10741;52.272;9.580;2022-08-02T05:34:51;14.20;99.90
21167;DHT22;10741;52.272;9.580;2022-08-02T05:37:18;14.20;99.90
21167;DHT22;10741;52.272;9.580;2022-08-02T05:39:43;14.20;99.90
21167;DHT22;10741;52.272;9.580;2022-08-02T05:42:09;14.30;99.90
21167;DHT22;10741;52.272;9.580;2022-08-02T05:44:35;14.40;99.90
21167;DHT22;10741;52.272;9.580;2022-08-02T05:47:01;14.60;99.90
21167;DHT22;10741;52.272;9.580;2022-08-02T05:49:27;14.70;99.90
21167;DHT22;10741;52.272;9.580;2022-08-02T05:52:06;14.80;99.90
21167;DHT22;10741;52.272;9.580;2022-08-02T06:00:10;15.30;99.90
21167;DHT22;10741;52.272;9.580;2022-08-02T06:06:03;15.70;99.90
21167;DHT22;10741;52.272;9.580;2022-08-02T06:08:37;16.00;99.90
21167;DHT22;10741;52.272;9.580;2022-08-02T06:11:05;16.20;99.90
21167;DHT22;10741;52.272;9.580;2022-08-02T06:13:31;16.50;99.90
21167;DHT22;10741;52.272;9.580;2022-08-02T06:15:58;16.70;99.90
21167;DHT22;10741;52.272;9.580;2022-08-02T06:18:27;16.90;99.90
21167;DHT22;10741;52.272;9.580;2022-08-02T06:20:56;17.10;99.90
21167;DHT22;10741;52.272;9.580;2022-08-02T06:23:25;17.30;99.90
21167;DHT22;10741;52.272;9.580;2022-08-02T06:25:52;17.50;99.90
21167;DHT22;10741;52.272;9.580;2022-08-02T06:28:19;17.70;99.90
21167;DHT22;10741;52.272;9.580;2022-08-02T06:30:51;17.80;99.90
21167;DHT22;10741;52.272;9.580;2022-08-02T06:33:17;17.90;99.90
21167;DHT22;10741;52.272;9.580;2022-08-02T06:35:47;18.10;99.90
21167;DHT22;10741;52.272;9.580;2022-08-02T06:38:21;18.30;99.90
21167;DHT22;10741;52.272;9.580;2022-08-02T06:43:46;18.60;99.90
21167;DHT22;10741;52.272;9.580;2022-08-02T06:46:14;18.80;99.90
21167;DHT22;10741;52.272;9.580;2022-08-02T06:49:02;18.90;99.90
21167;DHT22;10741;52.272;9.580;2022-08-02T06:52:16;19.20;99.90
21167;DHT22;10741;52.272;9.580;2022-08-02T06:54:42;19.30;99.90
21167;DHT22;10741;52.272;9.580;2022-08-02T06:57:08;19.30;99.90
21167;DHT22;10741;52.272;9.580;2022-08-02T06:59:34;19.50;99.90
21167;DHT22;10741;52.272;9.580;2022-08-02T07:02:00;19.60;99.90
21167;DHT22;10741;52.272;9.580;2022-08-02T07:04:28;19.70;99.90
21167;DHT22;10741;52.272;9.580;2022-08-02T07:06:54;19.80;99.90
21167;DHT22;10741;52.272;9.580;2022-08-02T07:09:21;20.00;99.90
21167;DHT22;10741;52.272;9.580;2022-08-02T07:11:47;20.10;99.90
21167;DHT22;10741;52.272;9.580;2022-08-02T07:14:12;20.30;99.90
21167;DHT22;10741;52.272;9.580;2022-08-02T07:16:38;20.30;99.90
21167;DHT22;10741;52.272;9.580;2022-08-02T07:19:04;20.20;99.90
21167;DHT22;10741;52.272;9.580;2022-08-02T07:21:30;20.30;99.90
21167;DHT22;10741;52.272;9.580;2022-08-02T07:23:55;20.40;99.90
21167;DHT22;10741;52.272;9.580;2022-08-02T07:26:21;20.40;99.90
21167;DHT22;10741;52.272;9.580;2022-08-02T07:28:47;20.60;99.90
21167;DHT22;10741;52.272;9.580;2022-08-02T07:31:13;20.70;99.90
21167;DHT22;10741;52.272;9.580;2022-08-02T07:33:38;20.70;99.90
21167;DHT22;10741;52.272;9.580;2022-08-02T07:36:04;20.80;99.90
21167;DHT22;10741;52.272;9.580;2022-08-02T07:38:30;20.90;99.90
21167;DHT22;10741;52.272;9.580;2022-08-02T07:40:56;21.00;99.90
21167;DHT22;10741;52.272;9.580;2022-08-02T07:43:21;21.00;99.90
21167;DHT22;10741;52.272;9.580;2022-08-02T07:48:54;21.10;99.90
21167;DHT22;10741;52.272;9.580;2022-08-02T07:51:21;21.30;99.90
21167;DHT22;10741;52.272;9.580;2022-08-02T07:53:47;21.50;99.90
21167;DHT22;10741;52.272;9.580;2022-08-02T07:56:12;21.60;99.90
21167;DHT22;10741;52.272;9.580;2022-08-02T07:58:40;21.70;99.90
21167;DHT22;10741;52.272;9.580;2022-08-02T08:01:06;21.80;99.90
21167;DHT22;10741;52.272;9.580;2022-08-02T08:03:32;21.90;99.90
21167;DHT22;10741;52.272;9.580;2022-08-02T08:05:57;21.90;99.90
21167;DHT22;10741;52.272;9.580;2022-08-02T08:08:23;21.90;99.90
21167;DHT22;10741;52.272;9.580;2022-08-02T08:10:49;22.10;99.90
21167;DHT22;10741;52.272;9.580;2022-08-02T08:13:15;22.30;99.90
21167;DHT22;10741;52.272;9.580;2022-08-02T08:15:41;22.30;99.90
21167;DHT22;10741;52.272;9.580;2022-08-02T08:18:06;22.30;99.90
21167;DHT22;10741;52.272;9.580;2022-08-02T08:20:32;22.40;99.90
21167;DHT22;10741;52.272;9.580;2022-08-02T08:22:58;22.40;99.90
21167;DHT22;10741;52.272;9.580;2022-08-02T08:25:24;22.40;99.90
21167;DHT22;10741;52.272;9.580;2022-08-02T08:27:50;22.60;99.90
21167;DHT22;10741;52.272;9.580;2022-08-02T08:30:17;22.60;99.90
21167;DHT22;10741;52.272;9.580;2022-08-02T08:32:44;22.60;99.90
21167;DHT22;10741;52.272;9.580;2022-08-02T08:35:10;22.90;99.90
21167;DHT22;10741;52.272;9.580;2022-08-02T08:37:37;23.00;99.90
21167;DHT22;10741;52.272;9.580;2022-08-02T08:40:07;23.20;99.90
21167;DHT22;10741;52.272;9.580;2022-08-02T08:42:35;23.20;99.90
21167;DHT22;10741;52.272;9.580;2022-08-02T08:45:01;23.30;99.90
21167;DHT22;10741;52.272;9.580;2022-08-02T08:47:36;23.20;99.90
21167;DHT22;10741;52.272;9.580;2022-08-02T08:50:08;23.40;99.90
21167;DHT22;10741;52.272;9.580;2022-08-02T08:52:47;23.40;99.90
21167;DHT22;10741;52.272;9.580;2022-08-02T08:55:13;23.40;99.90
21167;DHT22;10741;52.272;9.580;2022-08-02T08:57:42;23.50;99.90
21167;DHT22;10741;52.272;9.580;2022-08-02T09:00:12;23.70;99.90
21167;DHT22;10741;52.272;9.580;2022-08-02T09:02:39;23.70;99.90
21167;DHT22;10741;52.272;9.580;2022-08-02T09:05:10;23.60;99.90
21167;DHT22;10741;52.272;9.580;2022-08-02T09:07:37;23.50;99.90
21167;DHT22;10741;52.272;9.580;2022-08-02T09:13:20;23.20;99.90
21167;DHT22;10741;52.272;9.580;2022-08-02T09:16:03;23.30;99.90
21167;DHT22;10741;52.272;9.580;2022-08-02T09:18:37;23.40;99.90
21167;DHT22;10741;52.272;9.580;2022-08-02T09:21:07;23.50;99.90
21167;DHT22;10741;52.272;9.580;2022-08-02T09:26:06;23.60;99.90
21167;DHT22;10741;52.272;9.580;2022-08-02T09:28:35;23.60;99.70
21167;DHT22;10741;52.272;9.580;2022-08-02T09:31:12;23.50;99.20
21167;DHT22;10741;52.272;9.580;2022-08-02T09:33:40;23.40;98.00
21167;DHT22;10741;52.272;9.580;2022-08-02T09:38:35;23.40;99.90
21167;DHT22;10741;52.272;9.580;2022-08-02T09:41:02;23.40;99.90
21167;DHT22;10741;52.272;9.580;2022-08-02T09:43:38;23.40;99.90
21167;DHT22;10741;52.272;9.580;2022-08-02T09:46:14;23.40;99.80
21167;DHT22;10741;52.272;9.580;2022-08-02T09:51:20;23.50;98.60
21167;DHT22;10741;52.272;9.580;2022-08-02T09:53:48;23.70;99.30
21167;DHT22;10741;52.272;9.580;2022-08-02T09:56:16;23.70;99.00
21167;DHT22;10741;52.272;9.580;2022-08-02T09:58:43;23.90;99.40
21167;DHT22;10741;52.272;9.580;2022-08-02T10:01:09;24.10;98.90
21167;DHT22;10741;52.272;9.580;2022-08-02T10:03:35;24.20;98.00
21167;DHT22;10741;52.272;9.580;2022-08-02T10:06:01;24.20;97.70
21167;DHT22;10741;52.272;9.580;2022-08-02T10:08:30;24.30;97.00
21167;DHT22;10741;52.272;9.580;2022-08-02T10:10:56;24.20;97.80
21167;DHT22;10741;52.272;9.580;2022-08-02T10:13:31;23.90;98.00
21167;DHT22;10741;52.272;9.580;2022-08-02T10:15:58;23.90;97.70
21167;DHT22;10741;52.272;9.580;2022-08-02T10:18:24;23.70;98.20
21167;DHT22;10741;52.272;9.580;2022-08-02T10:20:52;23.60;98.30
21167;DHT22;10741;52.272;9.580;2022-08-02T10:23:20;23.70;98.00
21167;DHT22;10741;52.272;9.580;2022-08-02T10:25:47;23.80;98.20
21167;DHT22;10741;52.272;9.580;2022-08-02T10:28:15;23.90;97.90
21167;DHT22;10741;52.272;9.580;2022-08-02T10:30:44;23.90;96.40
21167;DHT22;10741;52.272;9.580;2022-08-02T10:33:15;24.00;98.20
21167;DHT22;10741;52.272;9.580;2022-08-02T10:35:44;24.10;95.10
21167;DHT22;10741;52.272;9.580;2022-08-02T10:38:12;24.10;95.10
21167;DHT22;10741;52.272;9.580;2022-08-02T10:40:48;24.20;95.90
21167;DHT22;10741;52.272;9.580;2022-08-02T10:43:40;24.20;95.80
21167;DHT22;10741;52.272;9.580;2022-08-02T10:46:33;24.30;93.30
21167;DHT22;10741;52.272;9.580;2022-08-02T10:49:03;24.30;93.90
21167;DHT22;10741;52.272;9.580;2022-08-02T10:54:36;24.30;93.20
21167;DHT22;10741;52.272;9.580;2022-08-02T10:57:23;24.50;93.20
21167;DHT22;10741;52.272;9.580;2022-08-02T10:59:56;24.60;94.40
21167;DHT22;10741;52.272;9.580;2022-08-02T11:02:36;24.70;93.60
21167;DHT22;10741;52.272;9.580;2022-08-02T11:05:09;24.90;93.50
21167;DHT22;10741;52.272;9.580;2022-08-02T11:07:44;25.10;95.30
21167;DHT22;10741;52.272;9.580;2022-08-02T11:13:05;25.30;94.60
21167;DHT22;10741;52.272;9.580;2022-08-02T11:15:52;25.40;94.10
21167;DHT22;10741;52.272;9.580;2022-08-02T11:18:19;25.50;94.00
21167;DHT22;10741;52.272;9.580;2022-08-02T11:20:45;25.70;93.10
21167;DHT22;10741;52.272;9.580;2022-08-02T11:25:59;26.30;94.60
21167;DHT22;10741;52.272;9.580;2022-08-02T11:28:25;26.50;92.20
21167;DHT22;10741;52.272;9.580;2022-08-02T11:30:58;26.70;91.10
21167;DHT22;10741;52.272;9.580;2022-08-02T11:33:31;26.70;90.10
21167;DHT22;10741;52.272;9.580;2022-08-02T11:36:03;27.10;92.60
21167;DHT22;10741;52.272;9.580;2022-08-02T11:38:30;27.40;90.30
21167;DHT22;10741;52.272;9.580;2022-08-02T11:40:56;27.60;91.20
21167;DHT22;10741;52.272;9.580;2022-08-02T11:43:23;27.80;90.30
21167;DHT22;10741;52.272;9.580;2022-08-02T11:45:51;27.80;90.60
21167;DHT22;10741;52.272;9.580;2022-08-02T11:48:34;27.80;90.00
21167;DHT22;10741;52.272;9.580;2022-08-02T11:51:08;28.00;90.00
21167;DHT22;10741;52.272;9.580;2022-08-02T11:53:53;28.30;90.40
21167;DHT22;10741;52.272;9.580;2022-08-02T11:56:28;28.10;90.80
21167;DHT22;10741;52.272;9.580;2022-08-02T11:59:07;28.40;90.90
21167;DHT22;10741;52.272;9.580;2022-08-02T12:01:36;28.50;89.90
21167;DHT22;10741;52.272;9.580;2022-08-02T12:04:03;28.60;90.80
21167;DHT22;10741;52.272;9.580;2022-08-02T12:06:30;28.90;88.30
21167;DHT22;10741;52.272;9.580;2022-08-02T12:09:06;29.00;85.20
21167;DHT22;10741;52.272;9.580;2022-08-02T12:11:32;28.80;87.00
21167;DHT22;10741;52.272;9.580;2022-08-02T12:13:59;28.50;85.80
21167;DHT22;10741;52.272;9.580;2022-08-02T12:16:35;28.60;88.90
21167;DHT22;10741;52.272;9.580;2022-08-02T12:19:20;28.90;86.20
21167;DHT22;10741;52.272;9.580;2022-08-02T12:24:40;29.00;83.20
21167;DHT22;10741;52.272;9.580;2022-08-02T12:27:06;28.80;86.40
21167;DHT22;10741;52.272;9.580;2022-08-02T12:29:35;28.70;84.40
21167;DHT22;10741;52.272;9.580;2022-08-02T12:32:02;28.40;85.70
21167;DHT22;10741;52.272;9.580;2022-08-02T12:34:29;28.10;83.70
21167;DHT22;10741;52.272;9.580;2022-08-02T12:42:00;28.10;87.30
21167;DHT22;10741;52.272;9.580;2022-08-02T12:44:26;28.00;84.60
21167;DHT22;10741;52.272;9.580;2022-08-02T12:47:06;27.90;88.90
21167;DHT22;10741;52.272;9.580;2022-08-02T12:49:34;28.30;90.30
21167;DHT22;10741;52.272;9.580;2022-08-02T12:52:00;28.30;90.00
21167;DHT22;10741;52.272;9.580;2022-08-02T12:54:29;28.20;85.70
21167;DHT22;10741;52.272;9.580;2022-08-02T12:56:57;28.00;87.60
21167;DHT22;10741;52.272;9.580;2022-08-02T12:59:36;27.80;85.50
21167;DHT22;10741;52.272;9.580;2022-08-02T13:02:08;27.90;87.70
21167;DHT22;10741;52.272;9.580;2022-08-02T13:04:35;27.90;91.30
21167;DHT22;10741;52.272;9.580;2022-08-02T13:07:02;27.90;89.10
21167;DHT22;10741;52.272;9.580;2022-08-02T13:09:33;27.70;87.50
21167;DHT22;10741;52.272;9.580;2022-08-02T13:11:59;27.90;89.10
21167;DHT22;10741;52.272;9.580;2022-08-02T13:14:25;28.00;87.00
21167;DHT22;10741;52.272;9.580;2022-08-02T13:16:51;28.10;87.40
21167;DHT22;10741;52.272;9.580;2022-08-02T13:19:17;28.10;85.30
21167;DHT22;10741;52.272;9.580;2022-08-02T13:21:45;28.10;87.70
21167;DHT22;10741;52.272;9.580;2022-08-02T13:24:13;28.40;87.00
21167;DHT22;10741;52.272;9.580;2022-08-02T13:26:41;29.10;88.80
21167;DHT22;10741;52.272;9.580;2022-08-02T13:29:09;29.40;88.40
21167;DHT22;10741;52.272;9.580;2022-08-02T13:31:35;29.70;81.50
21167;DHT22;10741;52.272;9.580;2022-08-02T13:34:03;29.80;87.30
21167;DHT22;10741;52.272;9.580;2022-08-02T13:36:31;29.70;82.10
21167;DHT22;10741;52.272;9.580;2022-08-02T13:38:57;29.50;86.20
21167;DHT22;10741;52.272;9.580;2022-08-02T13:41:23;29.40;82.40
21167;DHT22;10741;52.272;9.580;2022-08-02T13:43:49;29.20;82.80
21167;DHT22;10741;52.272;9.580;2022-08-02T13:46:15;29.30;86.30
21167;DHT22;10741;52.272;9.580;2022-08-02T13:48:41;28.80;84.90
21167;DHT22;10741;52.272;9.580;2022-08-02T13:51:06;28.80;85.80
21167;DHT22;10741;52.272;9.580;2022-08-02T13:53:40;28.70;83.60
21167;DHT22;10741;52.272;9.580;2022-08-02T13:56:06;28.70;86.80
21167;DHT22;10741;52.272;9.580;2022-08-02T13:58:32;29.00;88.50
21167;DHT22;10741;52.272;9.580;2022-08-02T14:00:58;28.70;84.30
21167;DHT22;10741;52.272;9.580;2022-08-02T14:03:27;28.80;90.00
21167;DHT22;10741;52.272;9.580;2022-08-02T14:05:54;28.80;83.70
21167;DHT22;10741;52.272;9.580;2022-08-02T14:08:20;28.80;85.30
21167;DHT22;10741;52.272;9.580;2022-08-02T14:10:48;28.90;85.60
21167;DHT22;10741;52.272;9.580;2022-08-02T14:13:15;29.20;86.10
21167;DHT22;10741;52.272;9.580;2022-08-02T14:15:41;29.20;87.20
21167;DHT22;10741;52.272;9.580;2022-08-02T14:18:07;29.20;84.80
21167;DHT22;10741;52.272;9.580;2022-08-02T14:20:33;29.20;85.10
21167;DHT22;10741;52.272;9.580;2022-08-02T14:22:58;29.40;85.30
21167;DHT22;10741;52.272;9.580;2022-08-02T14:25:24;29.60;83.70
21167;DHT22;10741;52.272;9.580;2022-08-02T14:27:50;29.60;80.80
21167;DHT22;10741;52.272;9.580;2022-08-02T14:30:16;29.70;83.40
21167;DHT22;10741;52.272;9.580;2022-08-02T14:32:42;29.60;82.90
21167;DHT22;10741;52.272;9.580;2022-08-02T14:35:08;29.70;84.40
21167;DHT22;10741;52.272;9.580;2022-08-02T14:37:34;29.50;83.70
21167;DHT22;10741;52.272;9.580;2022-08-02T14:40:00;29.70;86.00
21167;DHT22;10741;52.272;9.580;2022-08-02T14:42:26;29.70;81.70
21167;DHT22;10741;52.272;9.580;2022-08-02T14:44:52;29.50;86.10
21167;DHT22;10741;52.272;9.580;2022-08-02T14:47:18;29.40;79.20
21167;DHT22;10741;52.272;9.580;2022-08-02T14:49:43;29.30;78.40
21167;DHT22;10741;52.272;9.580;2022-08-02T14:52:09;29.20;75.30
21167;DHT22;10741;52.272;9.580;2022-08-02T14:54:37;29.10;79.00
21167;DHT22;10741;52.272;9.580;2022-08-02T14:57:05;29.10;80.80
21167;DHT22;10741;52.272;9.580;2022-08-02T14:59:31;28.90;77.80
21167;DHT22;10741;52.272;9.580;2022-08-02T15:01:58;28.60;77.50
21167;DHT22;10741;52.272;9.580;2022-08-02T15:04:24;28.60;82.10
21167;DHT22;10741;52.272;9.580;2022-08-02T15:06:50;28.50;80.10
21167;DHT22;10741;52.272;9.580;2022-08-02T15:09:16;28.50;78.80
21167;DHT22;10741;52.272;9.580;2022-08-02T15:11:42;28.30;78.90
21167;DHT22;10741;52.272;9.580;2022-08-02T15:14:08;28.20;81.40
21167;DHT22;10741;52.272;9.580;2022-08-02T15:16:33;28.20;81.80
21167;DHT22;10741;52.272;9.580;2022-08-02T15:19:03;28.00;81.20
21167;DHT22;10741;52.272;9.580;2022-08-02T15:21:30;28.00;83.10
21167;DHT22;10741;52.272;9.580;2022-08-02T15:23:56;27.80;83.20
21167;DHT22;10741;52.272;9.580;2022-08-02T15:26:22;27.70;84.20
21167;DHT22;10741;52.272;9.580;2022-08-02T15:28:48;27.60;83.70
21167;DHT22;10741;52.272;9.580;2022-08-02T15:31:14;27.50;82.50
21167;DHT22;10741;52.272;9.580;2022-08-02T15:33:40;27.50;84.00
21167;DHT22;10741;52.272;9.580;2022-08-02T15:36:06;27.40;83.40
21167;DHT22;10741;52.272;9.580;2022-08-02T15:38:33;27.30;85.40
21167;DHT22;10741;52.272;9.580;2022-08-02T15:40:59;27.20;85.90
21167;DHT22;10741;52.272;9.580;2022-08-02T15:43:25;27.20;84.30
21167;DHT22;10741;52.272;9.580;2022-08-02T15:45:51;27.20;85.30
21167;DHT22;10741;52.272;9.580;2022-08-02T15:48:17;27.20;83.10
21167;DHT22;10741;52.272;9.580;2022-08-02T15:50:43;27.20;84.40
21167;DHT22;10741;52.272;9.580;2022-08-02T15:53:09;27.20;86.90
21167;DHT22;10741;52.272;9.580;2022-08-02T15:55:35;27.20;85.90
21167;DHT22;10741;52.272;9.580;2022-08-02T15:58:02;27.20;87.20
21167;DHT22;10741;52.272;9.580;2022-08-02T16:00:28;27.10;86.80
21167;DHT22;10741;52.272;9.580;2022-08-02T16:02:55;27.10;84.20
21167;DHT22;10741;52.272;9.580;2022-08-02T16:05:21;27.10;84.60
21167;DHT22;10741;52.272;9.580;2022-08-02T16:07:47;27.10;86.90
21167;DHT22;10741;52.272;9.580;2022-08-02T16:10:14;27.00;87.00
21167;DHT22;10741;52.272;9.580;2022-08-02T16:12:40;27.00;85.80
21167;DHT22;10741;52.272;9.580;2022-08-02T16:15:06;27.00;87.60
21167;DHT22;10741;52.272;9.580;2022-08-02T16:17:32;26.90;85.60
21167;DHT22;10741;52.272;9.580;2022-08-02T16:19:58;27.00;84.90
21167;DHT22;10741;52.272;9.580;2022-08-02T16:22:24;26.90;88.10
21167;DHT22;10741;52.272;9.580;2022-08-02T16:24:50;26.80;85.40
21167;DHT22;10741;52.272;9.580;2022-08-02T16:27:16;26.80;86.00